San Luis Valley Regional Bergman Field
KALS : now visible

Airfield :











YOU CAN JOIN US ON...

 
LOGIN :

Register | Disclaimer

   EN    FR    IT 

 









Legend :    VFR   Marginal VFR   IFR   Intensive IFR   Very Intensive IFR
Visi :
Ceiling :
>= 8 km
>= 3000ft
5 to 8 km
1000 to 3000 ft
1500m to 5 km
500 to 1000 ft
800 to 1500m
200 to 500 ft
< 800m
< 200 ft
Symbols :   Thunderstorms  Fog  Heavy snow  Heavy precipitations  Wind > 20 kt






- Airport Elevation : 7539 ft


KALS - San Luis Valley Regional Bergman Field

CURRENT METAR :
  • 240852Z AUTO 17009KT 10SM CLR 03/M04 A3011 RMK AO2 SLP125 T00331039 58009

EXPIRED METARs :
  • 240752Z AUTO 18011KT 10SM CLR 02/M04 A3012 RMK AO2 SLP129 T00221044
  • 240652Z AUTO 18012KT 10SM CLR 03/M04 A3013 RMK AO2 SLP137 T00281044 402221006

TAF KALS
Valid from the 24 at 06:00 until the 25 at 06:00 UTC


240525Z 2406/2506 17008KT P6SM FEW250
FM241300 20011KT P6SM FEW250
FM241700 24020G30KT P6SM SKC
FM242100 25025G35KT 5SM BLDU SKC
FM250200 24015G25KT P6SM SCT250
KZDV FIR / North America



MET'MAP, your aeronautical weather chart ! - Copyright ORBIFLY December 2007 - Disclaimer

ORBIFLY MET'MAP TEAM :

Programming & Development : Alexandra Zaïnal
Concept & original design : Baudouin d'Aumeries
Assistance for programming : Marc-Olivier Méhu
Technical & hardware support : Manuel Goepfert

Contact : metmap@orbifly.com




SOURCES & CREDITS :

   NOAA       Earth
Advisory